createdAt,value
2019-01-21T00:01:16.863Z,3.50
2019-01-21T00:03:46.454Z,3.40
2019-01-21T00:06:16.295Z,3.30
2019-01-21T00:08:45.955Z,3.30
2019-01-21T00:11:15.765Z,3.30
2019-01-21T00:13:48.143Z,3.30
2019-01-21T00:16:17.994Z,3.30
2019-01-21T00:18:47.679Z,3.30
2019-01-21T00:21:17.470Z,3.30
2019-01-21T00:23:47.495Z,3.30
2019-01-21T00:26:17.232Z,3.40
2019-01-21T00:28:46.869Z,3.40
2019-01-21T00:31:16.453Z,3.50
2019-01-21T00:33:46.072Z,3.60
2019-01-21T00:36:15.656Z,3.70
2019-01-21T00:38:46.607Z,3.60
2019-01-21T00:41:16.207Z,3.50
2019-01-21T00:43:45.837Z,3.50
2019-01-21T00:46:15.684Z,3.40
2019-01-21T00:48:45.630Z,3.40
2019-01-21T00:51:22.825Z,3.40
2019-01-21T00:53:52.264Z,3.30
2019-01-21T00:56:21.851Z,3.30
2019-01-21T00:58:51.408Z,3.40
2019-01-21T01:01:21.327Z,3.40
2019-01-21T01:03:50.790Z,3.40
2019-01-21T01:06:20.370Z,3.50
2019-01-21T01:08:49.903Z,3.50
2019-01-21T01:11:19.528Z,3.60
2019-01-21T01:13:49.069Z,3.60
2019-01-21T01:16:18.771Z,3.60
2019-01-21T01:18:48.315Z,3.60
2019-01-21T01:21:18.341Z,3.60
2019-01-21T01:23:47.847Z,3.60
2019-01-21T01:26:19.188Z,3.60
2019-01-21T01:28:48.899Z,3.70
2019-01-21T01:31:18.876Z,3.70
2019-01-21T01:33:48.437Z,3.60
2019-01-21T01:36:18.673Z,3.60
2019-01-21T01:38:48.240Z,3.60
2019-01-21T01:41:18.146Z,3.60
2019-01-21T01:43:47.662Z,3.60
2019-01-21T01:46:17.369Z,3.70
2019-01-21T01:48:47.025Z,3.70
2019-01-21T01:51:17.096Z,3.70
2019-01-21T01:53:46.910Z,3.70
2019-01-21T01:56:16.462Z,3.60
2019-01-21T01:58:46.287Z,3.50
2019-01-21T02:01:15.830Z,3.40
2019-01-21T02:03:45.575Z,3.30
2019-01-21T02:06:15.100Z,3.20
2019-01-21T02:08:44.681Z,3.10
2019-01-21T02:11:14.388Z,3.00
2019-01-21T02:13:43.907Z,3.00
2019-01-21T02:16:13.579Z,2.90
2019-01-21T02:18:43.090Z,2.80
2019-01-21T02:21:12.572Z,2.80
2019-01-21T02:23:44.373Z,2.80
2019-01-21T02:26:23.232Z,2.80
2019-01-21T02:29:18.061Z,2.90
2019-01-21T02:32:37.481Z,2.90
2019-01-21T02:35:23.784Z,2.90
2019-01-21T02:38:42.951Z,2.90
2019-01-21T02:41:56.196Z,2.80
2019-01-21T02:45:06.871Z,2.70
2019-01-21T02:48:00.187Z,2.70
2019-01-21T02:51:13.788Z,2.60
2019-01-21T02:54:09.683Z,2.70
2019-01-21T02:57:03.997Z,2.60
2019-01-21T03:00:01.431Z,2.70
2019-01-21T03:02:59.929Z,2.80
2019-01-21T03:06:16.900Z,2.80
2019-01-21T03:09:10.322Z,2.70
2019-01-21T03:12:11.945Z,2.60
2019-01-21T03:15:15.061Z,2.70
2019-01-21T03:18:08.050Z,2.70
2019-01-21T03:21:14.294Z,2.70
2019-01-21T03:24:24.685Z,2.60
2019-01-21T03:27:35.333Z,2.60
2019-01-21T03:30:36.785Z,2.60
2019-01-21T03:33:29.768Z,2.60
2019-01-21T03:36:06.275Z,2.50
2019-01-21T03:39:15.587Z,2.60
2019-01-21T03:42:15.604Z,2.70
2019-01-21T03:45:32.050Z,2.70
2019-01-21T03:48:48.361Z,2.80
2019-01-21T03:51:56.480Z,2.80
2019-01-21T03:54:35.090Z,2.90
2019-01-21T03:57:44.229Z,2.90
2019-01-21T04:00:47.514Z,2.90
2019-01-21T04:03:52.307Z,2.80
2019-01-21T04:06:49.406Z,2.80
2019-01-21T04:10:14.518Z,2.80
2019-01-21T04:13:21.603Z,2.70
2019-01-21T04:16:12.643Z,2.70
2019-01-21T04:19:43.153Z,2.60
2019-01-21T04:22:43.391Z,2.50
2019-01-21T04:25:47.673Z,2.40
2019-01-21T04:28:57.126Z,2.40
2019-01-21T04:32:03.878Z,2.30
2019-01-21T04:35:04.462Z,2.30
2019-01-21T04:38:11.654Z,2.30
2019-01-21T04:40:55.988Z,2.30
2019-01-21T04:43:45.178Z,2.30
2019-01-21T04:46:36.767Z,2.10
2019-01-21T04:49:42.732Z,2.00
2019-01-21T04:52:28.423Z,2.00
2019-01-21T04:55:55.891Z,2.00
2019-01-21T04:58:55.758Z,2.00
2019-01-21T05:01:58.894Z,2.00
2019-01-21T05:05:13.642Z,1.90
2019-01-21T05:08:05.676Z,1.80
2019-01-21T05:11:14.402Z,1.90
2019-01-21T05:14:22.298Z,1.90
2019-01-21T05:17:37.703Z,1.90
2019-01-21T05:20:42.133Z,1.90
2019-01-21T05:23:55.862Z,1.80
2019-01-21T05:26:36.546Z,1.70
2019-01-21T05:29:49.761Z,1.80
2019-01-21T05:32:56.994Z,1.80
2019-01-21T05:36:03.249Z,1.90
2019-01-21T05:38:53.403Z,2.00
2019-01-21T05:42:19.017Z,2.20
2019-01-21T05:45:20.191Z,2.30
2019-01-21T05:48:37.558Z,2.40
2019-01-21T05:52:09.238Z,2.50
2019-01-21T05:55:43.834Z,2.50
2019-01-21T05:58:38.471Z,2.50
2019-01-21T06:01:41.118Z,2.30
2019-01-21T06:04:37.897Z,2.20
2019-01-21T06:07:28.752Z,2.10
2019-01-21T06:10:15.650Z,2.10
2019-01-21T06:13:09.326Z,2.20
2019-01-21T06:16:12.368Z,2.20
2019-01-21T06:19:04.858Z,2.30
2019-01-21T06:22:25.593Z,2.40
2019-01-21T06:25:26.890Z,2.40
2019-01-21T06:28:35.753Z,2.40
2019-01-21T06:31:39.271Z,2.40
2019-01-21T06:34:53.006Z,2.40
2019-01-21T06:38:02.513Z,2.40
2019-01-21T06:41:14.703Z,2.50
2019-01-21T06:44:42.949Z,2.40
2019-01-21T06:47:49.017Z,2.40
2019-01-21T06:51:08.278Z,2.20
2019-01-21T06:54:17.838Z,2.10
2019-01-21T06:57:22.093Z,2.20
2019-01-21T07:00:25.634Z,2.20
2019-01-21T07:03:22.771Z,2.30
2019-01-21T07:06:23.300Z,2.30
2019-01-21T07:09:39.561Z,2.40
2019-01-21T07:12:26.532Z,2.40
2019-01-21T07:15:31.102Z,2.50
2019-01-21T07:18:30.823Z,2.50
2019-01-21T07:21:49.663Z,2.40
2019-01-21T07:25:00.708Z,2.50
2019-01-21T07:27:51.358Z,2.50
2019-01-21T07:30:29.189Z,2.60
2019-01-21T07:33:25.668Z,2.60
2019-01-21T07:36:37.685Z,2.60
2019-01-21T07:39:43.676Z,2.40
2019-01-21T07:42:51.428Z,2.20
2019-01-21T07:45:41.554Z,2.00
2019-01-21T07:48:37.631Z,2.10
2019-01-21T07:52:03.304Z,2.30
2019-01-21T07:54:55.371Z,2.50
2019-01-21T07:58:10.319Z,2.70
2019-01-21T08:00:47.669Z,2.80
2019-01-21T08:03:40.457Z,3.00
2019-01-21T08:06:45.482Z,3.00
2019-01-21T08:09:40.035Z,3.10
2019-01-21T08:12:55.723Z,3.10
2019-01-21T08:16:24.125Z,3.20
2019-01-21T08:19:15.215Z,3.20
2019-01-21T08:22:14.028Z,3.20
2019-01-21T08:25:24.496Z,3.20
2019-01-21T08:28:25.144Z,3.20
2019-01-21T08:31:29.435Z,3.30
2019-01-21T08:34:51.602Z,3.30
2019-01-21T08:38:06.078Z,3.30
2019-01-21T08:40:59.895Z,3.30
2019-01-21T08:43:55.885Z,3.20
2019-01-21T08:47:11.332Z,3.30
2019-01-21T08:50:40.481Z,3.30
2019-01-21T08:53:43.642Z,3.30
2019-01-21T08:56:36.095Z,3.30
2019-01-21T08:59:20.919Z,3.20
2019-01-21T09:02:18.933Z,3.30
2019-01-21T09:05:35.425Z,3.30
2019-01-21T09:08:55.557Z,3.40
2019-01-21T09:12:13.585Z,3.50
2019-01-21T09:15:18.505Z,3.50
2019-01-21T09:18:34.872Z,3.50
2019-01-21T09:21:34.289Z,3.50
2019-01-21T09:24:48.237Z,3.60
2019-01-21T09:27:58.754Z,3.60
2019-01-21T09:30:59.446Z,3.70
2019-01-21T09:34:14.565Z,3.70
2019-01-21T09:37:41.309Z,3.80
2019-01-21T09:41:06.941Z,3.80
2019-01-21T09:44:10.975Z,3.90
2019-01-21T09:46:45.437Z,3.90
2019-01-21T09:49:13.467Z,3.80
2019-01-21T09:51:50.610Z,3.80
2019-01-21T09:54:21.664Z,3.90
2019-01-21T09:56:55.058Z,3.90
2019-01-21T09:59:25.751Z,3.90
2019-01-21T10:01:57.848Z,4.00
2019-01-21T10:04:35.092Z,3.90
2019-01-21T10:07:50.209Z,3.90
2019-01-21T10:10:54.978Z,3.90
2019-01-21T10:14:04.660Z,3.80
2019-01-21T10:17:22.807Z,3.80
2019-01-21T10:20:21.623Z,3.80
2019-01-21T10:23:21.767Z,3.80
2019-01-21T10:26:47.046Z,3.90
2019-01-21T10:30:04.687Z,3.90
2019-01-21T10:33:10.939Z,3.80
2019-01-21T10:36:11.209Z,3.80
2019-01-21T10:39:28.255Z,3.80
2019-01-21T10:42:30.113Z,3.80
2019-01-21T10:45:31.744Z,3.70
2019-01-21T10:48:54.171Z,3.80
2019-01-21T10:51:41.505Z,3.70
2019-01-21T10:54:56.389Z,3.70
2019-01-21T10:57:56.617Z,3.70
2019-01-21T11:01:04.434Z,3.70
2019-01-21T11:04:08.473Z,3.80
2019-01-21T11:07:39.761Z,3.80
2019-01-21T11:10:23.600Z,3.80
2019-01-21T11:13:33.904Z,3.90
2019-01-21T11:16:35.791Z,3.90
2019-01-21T11:19:33.371Z,4.00
2019-01-21T11:22:15.181Z,4.00
2019-01-21T11:25:17.103Z,4.10
2019-01-21T11:28:25.273Z,4.10
2019-01-21T11:31:32.034Z,4.20
2019-01-21T11:34:42.557Z,4.10
2019-01-21T11:37:49.763Z,4.00
2019-01-21T11:40:43.827Z,4.10
2019-01-21T11:43:47.272Z,4.10
2019-01-21T11:47:14.435Z,4.10
2019-01-21T11:50:10.652Z,4.10
2019-01-21T11:52:52.795Z,4.20
2019-01-21T11:55:57.997Z,4.20
2019-01-21T11:59:01.306Z,4.30
2019-01-21T12:01:40.998Z,4.20
2019-01-21T12:04:45.146Z,4.30
2019-01-21T12:07:28.589Z,4.30
2019-01-21T12:10:26.770Z,4.50
2019-01-21T12:13:17.470Z,4.60
2019-01-21T12:16:28.507Z,4.60
2019-01-21T12:19:44.753Z,4.70
2019-01-21T12:22:51.980Z,4.70
2019-01-21T12:25:33.118Z,4.70
2019-01-21T12:28:42.240Z,4.70
2019-01-21T12:31:46.553Z,4.80
2019-01-21T12:35:04.200Z,4.90
2019-01-21T12:37:56.284Z,4.90
2019-01-21T12:41:06.418Z,4.80
2019-01-21T12:44:11.569Z,4.80
2019-01-21T12:46:52.133Z,4.90
2019-01-21T12:49:45.031Z,4.80
2019-01-21T12:52:52.714Z,4.70
2019-01-21T12:56:01.970Z,4.70
2019-01-21T12:59:02.728Z,4.90
2019-01-21T13:02:15.157Z,4.90
2019-01-21T13:05:02.454Z,5.00
2019-01-21T13:07:44.835Z,4.90
2019-01-21T13:11:00.633Z,5.00
2019-01-21T13:14:03.617Z,4.70
2019-01-21T13:16:57.831Z,4.70
2019-01-21T13:19:51.781Z,4.60
2019-01-21T13:22:51.408Z,4.40
2019-01-21T13:26:04.380Z,4.40
2019-01-21T13:29:01.653Z,4.50
2019-01-21T13:32:13.606Z,4.50
2019-01-21T13:35:18.286Z,4.50
2019-01-21T13:38:28.664Z,4.50
2019-01-21T13:41:46.541Z,4.50
2019-01-21T13:44:37.039Z,4.40
2019-01-21T13:47:29.873Z,4.30
2019-01-21T13:50:07.594Z,4.30
2019-01-21T13:53:14.005Z,4.30
2019-01-21T13:56:16.196Z,4.10
2019-01-21T13:59:22.534Z,4.10
2019-01-21T14:02:01.638Z,4.10
2019-01-21T14:05:33.106Z,4.20
2019-01-21T14:08:07.419Z,4.00
2019-01-21T14:11:38.945Z,3.90
2019-01-21T14:14:48.016Z,3.80
2019-01-21T14:18:31.440Z,3.60
2019-01-21T14:21:12.479Z,3.60
2019-01-21T14:24:36.592Z,3.70
2019-01-21T14:27:21.340Z,3.70
2019-01-21T14:30:32.529Z,3.70
2019-01-21T14:33:32.583Z,3.70
2019-01-21T14:36:19.105Z,3.60
2019-01-21T14:39:20.433Z,3.70
2019-01-21T14:42:23.306Z,3.60
2019-01-21T14:45:39.458Z,3.60
2019-01-21T14:48:47.058Z,3.70
2019-01-21T14:51:56.393Z,3.80
2019-01-21T14:54:58.552Z,3.80
2019-01-21T14:58:05.128Z,3.80
2019-01-21T15:00:58.623Z,3.80
2019-01-21T15:04:21.418Z,3.70
2019-01-21T15:07:34.926Z,3.70
2019-01-21T15:10:49.906Z,3.70
2019-01-21T15:13:40.712Z,3.70
2019-01-21T15:16:38.989Z,3.70
2019-01-21T15:19:34.940Z,3.70
2019-01-21T15:22:20.089Z,3.60
2019-01-21T15:25:33.670Z,3.60
2019-01-21T15:28:38.456Z,3.60
2019-01-21T15:31:30.059Z,3.60
2019-01-21T15:34:21.812Z,3.50
2019-01-21T15:37:53.132Z,3.60
2019-01-21T15:40:48.871Z,3.60
2019-01-21T15:43:42.694Z,3.50
2019-01-21T15:46:51.476Z,3.50
2019-01-21T15:49:30.813Z,3.60
2019-01-21T15:52:34.058Z,3.60
2019-01-21T15:55:35.078Z,3.60
2019-01-21T15:58:20.046Z,3.60
2019-01-21T16:01:31.369Z,3.60
2019-01-21T16:04:44.556Z,3.60
2019-01-21T16:07:58.485Z,3.60
2019-01-21T16:10:52.682Z,3.60
2019-01-21T16:14:04.154Z,3.50
2019-01-21T16:17:04.283Z,3.60
2019-01-21T16:20:01.094Z,3.60
2019-01-21T16:23:06.150Z,3.60
2019-01-21T16:25:49.104Z,3.70
2019-01-21T16:28:52.766Z,3.70
2019-01-21T16:31:52.740Z,3.70
2019-01-21T16:34:48.890Z,3.70
2019-01-21T16:37:45.201Z,3.60
2019-01-21T16:40:33.542Z,3.60
2019-01-21T16:43:03.019Z,3.60
2019-01-21T16:45:32.368Z,3.70
2019-01-21T16:48:01.883Z,3.80
2019-01-21T16:50:31.437Z,3.90
2019-01-21T16:53:00.937Z,3.90
2019-01-21T16:55:30.439Z,3.90
2019-01-21T16:58:00.156Z,3.90
2019-01-21T17:00:29.821Z,3.90
2019-01-21T17:02:59.601Z,3.90
2019-01-21T17:05:29.089Z,3.90
2019-01-21T17:07:58.569Z,3.90
2019-01-21T17:10:28.334Z,3.90
2019-01-21T17:12:57.753Z,3.90
2019-01-21T17:15:29.602Z,3.90
2019-01-21T17:17:59.035Z,3.90
2019-01-21T17:20:28.446Z,3.90
2019-01-21T17:22:57.858Z,3.90
2019-01-21T17:25:27.439Z,4.00
2019-01-21T17:27:56.839Z,4.00
2019-01-21T17:30:26.400Z,4.00
2019-01-21T17:32:56.076Z,3.80
2019-01-21T17:35:25.553Z,3.80
2019-01-21T17:37:55.025Z,3.80
2019-01-21T17:40:24.784Z,3.80
2019-01-21T17:42:54.187Z,3.80
2019-01-21T17:45:24.783Z,3.80
2019-01-21T17:47:54.301Z,3.80
2019-01-21T17:50:23.786Z,3.80
2019-01-21T17:52:53.191Z,3.80
2019-01-21T17:55:22.666Z,3.70
2019-01-21T17:57:52.192Z,3.70
2019-01-21T18:00:23.556Z,3.70
2019-01-21T18:02:53.205Z,3.60
2019-01-21T18:05:22.768Z,3.50
2019-01-21T18:07:52.276Z,3.50
2019-01-21T18:10:22.146Z,3.40
2019-01-21T18:12:51.768Z,3.40
2019-01-21T18:15:21.608Z,3.40
2019-01-21T18:17:51.284Z,3.40
2019-01-21T18:20:23.453Z,3.40
2019-01-21T18:22:53.119Z,3.50
2019-01-21T18:25:22.606Z,3.40
2019-01-21T18:27:52.213Z,3.30
2019-01-21T18:30:26.841Z,3.30
2019-01-21T18:32:56.361Z,3.20
2019-01-21T18:35:25.790Z,3.20
2019-01-21T18:37:55.524Z,3.10
2019-01-21T18:40:25.059Z,3.10
2019-01-21T18:42:54.931Z,3.10
2019-01-21T18:45:26.461Z,3.10
2019-01-21T18:47:56.111Z,3.00
2019-01-21T18:50:25.629Z,2.90
2019-01-21T18:52:55.328Z,2.90
2019-01-21T18:55:24.779Z,2.80
2019-01-21T18:57:55.966Z,2.70
2019-01-21T19:00:26.641Z,2.70
2019-01-21T19:02:56.292Z,2.70
2019-01-21T19:05:25.708Z,2.70
2019-01-21T19:07:55.289Z,2.70
2019-01-21T19:10:24.757Z,2.70
2019-01-21T19:12:54.232Z,2.70
2019-01-21T19:15:29.441Z,2.60
2019-01-21T19:18:01.401Z,2.60
2019-01-21T19:20:30.910Z,2.50
2019-01-21T19:23:00.376Z,2.40
2019-01-21T19:25:29.943Z,2.40
2019-01-21T19:27:59.353Z,2.30
2019-01-21T19:30:29.028Z,2.30
2019-01-21T19:32:58.670Z,2.30
2019-01-21T19:35:30.740Z,2.40
2019-01-21T19:38:00.224Z,2.40
2019-01-21T19:40:29.680Z,2.40
2019-01-21T19:42:59.221Z,2.40
2019-01-21T19:45:28.764Z,2.30
2019-01-21T19:47:58.354Z,2.30
2019-01-21T19:50:28.216Z,2.30
2019-01-21T19:52:57.749Z,2.30
2019-01-21T19:55:30.073Z,2.40
2019-01-21T19:57:59.655Z,2.50
2019-01-21T20:00:29.772Z,2.60
2019-01-21T20:02:59.461Z,2.60
2019-01-21T20:05:28.988Z,2.70
2019-01-21T20:08:00.627Z,2.70
2019-01-21T20:10:30.207Z,2.70
2019-01-21T20:12:59.895Z,2.80
2019-01-21T20:15:29.564Z,2.80
2019-01-21T20:17:59.295Z,2.80
2019-01-21T20:20:31.420Z,2.80
2019-01-21T20:23:00.930Z,2.80
2019-01-21T20:25:30.422Z,2.90
2019-01-21T20:28:00.166Z,2.90
2019-01-21T20:30:29.708Z,2.90
2019-01-21T20:33:02.395Z,3.00
2019-01-21T20:35:31.956Z,3.00
2019-01-21T20:38:01.648Z,3.00
2019-01-21T20:40:31.205Z,3.10
2019-01-21T20:43:01.109Z,2.90
2019-01-21T20:45:30.673Z,2.90
2019-01-21T20:48:00.223Z,2.90
2019-01-21T20:50:30.779Z,2.90
2019-01-21T20:53:00.360Z,2.80
2019-01-21T20:55:29.790Z,2.80
2019-01-21T20:57:59.248Z,2.80
2019-01-21T21:00:29.779Z,2.80
2019-01-21T21:03:03.051Z,2.80
2019-01-21T21:05:35.089Z,2.90
2019-01-21T21:08:06.633Z,3.00
2019-01-21T21:10:36.509Z,3.00
2019-01-21T21:13:05.890Z,3.00
2019-01-21T21:15:35.305Z,3.00
2019-01-21T21:18:04.895Z,2.90
2019-01-21T21:20:34.415Z,2.90
2019-01-21T21:23:06.341Z,3.00
2019-01-21T21:25:35.829Z,3.10
2019-01-21T21:28:06.538Z,3.10
2019-01-21T21:30:35.964Z,3.10
2019-01-21T21:33:05.824Z,3.00
2019-01-21T21:35:35.360Z,3.00
2019-01-21T21:38:05.022Z,2.90
2019-01-21T21:40:34.556Z,2.90
2019-01-21T21:43:04.094Z,2.90
2019-01-21T21:45:33.575Z,2.80
2019-01-21T21:48:03.277Z,3.00
2019-01-21T21:50:33.600Z,3.00
2019-01-21T21:53:03.144Z,3.10
2019-01-21T21:55:32.535Z,3.20
2019-01-21T21:58:01.896Z,3.20
2019-01-21T22:00:31.664Z,3.30
2019-01-21T22:03:01.144Z,3.30
2019-01-21T22:05:30.874Z,3.40
2019-01-21T22:08:00.258Z,3.40
2019-01-21T22:10:30.306Z,3.50
2019-01-21T22:12:59.787Z,3.60
2019-01-21T22:15:29.652Z,3.50
2019-01-21T22:17:59.249Z,3.50
2019-01-21T22:20:28.977Z,3.50
2019-01-21T22:23:00.885Z,3.40
2019-01-21T22:25:30.622Z,3.20
2019-01-21T22:28:00.236Z,3.10
2019-01-21T22:30:35.998Z,3.10
2019-01-21T22:33:21.002Z,3.00
2019-01-21T22:35:50.860Z,2.90
2019-01-21T22:38:20.576Z,2.90
2019-01-21T22:40:52.386Z,2.90
2019-01-21T22:43:21.675Z,2.90
2019-01-21T22:45:53.976Z,2.80
2019-01-21T22:48:23.668Z,2.80
2019-01-21T22:50:53.249Z,2.80
2019-01-21T22:53:23.623Z,2.80
2019-01-21T22:55:56.360Z,2.80
2019-01-21T22:58:25.889Z,2.90
2019-01-21T23:01:00.594Z,3.00
2019-01-21T23:03:31.348Z,3.00
2019-01-21T23:06:00.934Z,3.00
2019-01-21T23:08:30.578Z,3.00
2019-01-21T23:11:02.882Z,3.10
2019-01-21T23:13:32.585Z,3.10
2019-01-21T23:16:03.846Z,3.20
2019-01-21T23:18:33.949Z,3.20
2019-01-21T23:21:03.446Z,3.20
2019-01-21T23:23:33.101Z,3.20
2019-01-21T23:26:02.648Z,3.20
2019-01-21T23:28:32.262Z,3.10
2019-01-21T23:31:01.895Z,3.10
2019-01-21T23:33:31.440Z,3.10
2019-01-21T23:36:01.284Z,3.10
2019-01-21T23:38:30.883Z,3.20
2019-01-21T23:41:00.391Z,3.10
2019-01-21T23:43:30.020Z,3.10
2019-01-21T23:46:00.795Z,3.00
2019-01-21T23:48:30.569Z,2.90
2019-01-21T23:51:00.107Z,2.90
2019-01-21T23:53:29.686Z,2.90
2019-01-21T23:55:59.239Z,2.80
2019-01-21T23:58:28.826Z,2.70
